createdAt,value
2019-04-10T00:02:53.578Z,256.38
2019-04-10T00:07:11.847Z,263.57
2019-04-10T00:11:16.586Z,264.93
2019-04-10T00:15:26.973Z,255.17
2019-04-10T00:19:37.976Z,248.57
2019-04-10T00:23:49.211Z,247.37
2019-04-10T00:27:59.543Z,250.00
2019-04-10T00:32:10.067Z,253.10
2019-04-10T00:36:21.161Z,265.03
2019-04-10T00:40:31.518Z,267.80
2019-04-10T00:44:41.976Z,243.17
2019-04-10T00:48:52.400Z,252.17
2019-04-10T00:53:02.940Z,251.33
2019-04-10T00:57:13.390Z,258.23
2019-04-10T01:01:23.754Z,247.27
2019-04-10T01:05:33.988Z,245.87
2019-04-10T01:09:44.167Z,250.23
2019-04-10T01:13:56.983Z,252.43
2019-04-10T01:18:07.361Z,245.23
2019-04-10T01:22:17.774Z,247.40
2019-04-10T01:26:28.279Z,250.47
2019-04-10T01:30:39.028Z,264.23
2019-04-10T01:34:50.438Z,252.80
2019-04-10T01:39:02.030Z,251.93
2019-04-10T01:43:16.826Z,248.57
2019-04-10T01:47:24.495Z,244.37
2019-04-10T01:51:35.167Z,253.63
2019-04-10T01:55:45.604Z,252.87
2019-04-10T01:59:56.322Z,256.83
2019-04-10T02:04:07.564Z,247.90
2019-04-10T02:08:19.013Z,242.97
2019-04-10T02:12:30.362Z,256.57
2019-04-10T02:16:41.136Z,259.03
2019-04-10T02:20:51.848Z,247.20
2019-04-10T02:25:03.410Z,247.87
2019-04-10T02:29:13.866Z,247.73
2019-04-10T02:33:25.456Z,243.40
2019-04-10T02:37:37.228Z,250.87
2019-04-10T02:41:47.688Z,261.07
2019-04-10T02:45:59.833Z,245.47
2019-04-10T02:50:12.481Z,252.57
2019-04-10T02:54:24.938Z,248.27
2019-04-10T02:58:35.498Z,251.07
2019-04-10T03:02:47.734Z,252.07
2019-04-10T03:06:57.760Z,254.97
2019-04-10T03:11:11.735Z,251.80
2019-04-10T03:15:20.889Z,248.57
2019-04-10T03:19:31.709Z,254.67
2019-04-10T03:23:42.238Z,254.37
2019-04-10T03:27:52.722Z,255.97
2019-04-10T03:32:21.108Z,254.57
2019-04-10T03:36:37.990Z,251.20
2019-04-10T03:40:48.533Z,265.13
2019-04-10T03:44:58.997Z,259.17
2019-04-10T03:49:09.960Z,253.27
2019-04-10T03:53:22.124Z,251.27
2019-04-10T03:57:34.297Z,249.27
2019-04-10T04:01:45.164Z,255.40
2019-04-10T04:05:55.630Z,262.30
2019-04-10T04:10:10.979Z,250.97
2019-04-10T04:14:22.611Z,253.73
2019-04-10T04:18:33.266Z,243.60
2019-04-10T04:22:43.908Z,253.23
2019-04-10T04:26:55.069Z,257.93
2019-04-10T04:31:05.508Z,251.47
2019-04-10T04:35:17.549Z,257.43
2019-04-10T04:39:29.927Z,251.40
2019-04-10T04:43:42.353Z,252.33
2019-04-10T04:47:51.982Z,265.97
2019-04-10T04:52:02.617Z,250.17
2019-04-10T04:56:13.321Z,245.93
2019-04-10T05:00:23.913Z,254.37
2019-04-10T05:04:35.469Z,245.70
2019-04-10T05:08:46.328Z,259.90
2019-04-10T05:12:57.815Z,252.77
2019-04-10T05:17:08.415Z,238.57
2019-04-10T05:21:19.131Z,253.83
2019-04-10T05:25:29.700Z,237.43
2019-04-10T05:29:40.889Z,251.53
2019-04-10T05:33:51.471Z,246.60
2019-04-10T05:38:02.550Z,248.57
2019-04-10T05:42:12.938Z,257.97
2019-04-10T05:46:24.982Z,245.23
2019-04-10T05:50:37.830Z,254.27
2019-04-10T05:54:49.413Z,250.70
2019-04-10T05:59:03.029Z,257.50
2019-04-10T06:03:14.205Z,260.93
2019-04-10T06:07:25.265Z,257.33
2019-04-10T06:11:39.457Z,255.10
2019-04-10T06:15:51.084Z,253.37
2019-04-10T06:20:01.387Z,261.00
2019-04-10T06:24:14.098Z,253.77
2019-04-10T06:28:25.829Z,255.10
2019-04-10T06:32:37.746Z,251.20
2019-04-10T06:36:49.117Z,256.90
2019-04-10T06:41:02.999Z,250.10
2019-04-10T06:45:13.469Z,257.73
2019-04-10T06:49:24.888Z,250.97
2019-04-10T06:53:37.317Z,259.43
2019-04-10T06:57:55.861Z,263.07
2019-04-10T07:02:14.157Z,259.50
2019-04-10T07:06:17.613Z,262.50
2019-04-10T07:10:29.897Z,265.60
2019-04-10T07:14:43.871Z,259.20
2019-04-10T07:18:51.989Z,258.20
2019-04-10T07:23:03.052Z,254.73
2019-04-10T07:27:16.049Z,259.23
2019-04-10T07:31:32.410Z,252.77
2019-04-10T07:35:40.494Z,256.37
2019-04-10T07:39:51.003Z,258.73
2019-04-10T07:44:01.816Z,249.80
2019-04-10T07:48:12.875Z,257.43
2019-04-10T07:52:24.073Z,256.63
2019-04-10T07:56:35.387Z,255.80
2019-04-10T08:00:46.947Z,254.23
2019-04-10T08:04:57.939Z,258.20
2019-04-10T08:09:10.953Z,258.50
2019-04-10T08:13:22.514Z,248.40
2019-04-10T08:17:33.117Z,249.53
2019-04-10T08:21:44.368Z,254.83
2019-04-10T08:25:55.884Z,253.63
2019-04-10T08:30:08.529Z,255.90
2019-04-10T08:34:19.535Z,254.47
2019-04-10T08:38:32.290Z,259.83
2019-04-10T08:42:45.756Z,253.17
2019-04-10T08:46:54.996Z,266.17
2019-04-10T08:51:06.778Z,252.00
2019-04-10T08:55:18.035Z,249.03
2019-04-10T08:59:30.067Z,256.23
2019-04-10T09:03:41.908Z,253.90
2019-04-10T09:07:54.748Z,257.17
2019-04-10T09:12:05.877Z,249.10
2019-04-10T09:16:16.239Z,249.43
2019-04-10T09:20:26.852Z,248.03
2019-04-10T09:24:38.334Z,245.07
2019-04-10T09:28:50.690Z,261.97
2019-04-10T09:33:02.963Z,248.47
2019-04-10T09:37:13.532Z,253.10
2019-04-10T09:41:23.775Z,249.67
2019-04-10T09:45:35.013Z,264.53
2019-04-10T09:49:47.033Z,252.63
2019-04-10T09:53:59.486Z,243.93
2019-04-10T09:58:10.221Z,252.80
2019-04-10T10:02:21.538Z,251.07
2019-04-10T10:06:36.277Z,256.50
2019-04-10T10:10:44.949Z,252.60
2019-04-10T10:14:55.984Z,247.63
2019-04-10T10:19:08.212Z,246.87
2019-04-10T10:23:20.025Z,247.87
2019-04-10T10:27:30.527Z,248.80
2019-04-10T10:31:41.328Z,257.03
2019-04-10T10:35:51.829Z,247.77
2019-04-10T10:40:06.076Z,258.60
2019-04-10T10:44:19.232Z,249.50
2019-04-10T10:48:32.322Z,247.57
2019-04-10T10:52:43.606Z,250.37
2019-04-10T10:56:55.012Z,251.17
2019-04-10T11:01:07.467Z,254.30
2019-04-10T11:05:19.071Z,255.37
2019-04-10T11:09:30.196Z,254.33
2019-04-10T11:13:40.926Z,253.83
2019-04-10T11:17:52.038Z,247.13
2019-04-10T11:22:02.850Z,247.53
2019-04-10T11:26:18.902Z,254.87
2019-04-10T11:30:25.120Z,258.73
2019-04-10T11:34:35.701Z,257.50
2019-04-10T11:38:47.294Z,256.60
2019-04-10T11:42:58.143Z,250.30
2019-04-10T11:47:10.517Z,253.83
2019-04-10T11:51:23.311Z,250.10
2019-04-10T11:55:45.043Z,265.07
2019-04-10T11:59:49.712Z,256.40
2019-04-10T12:04:00.930Z,261.53
2019-04-10T12:08:49.779Z,256.23
2019-04-10T12:12:25.500Z,256.70
2019-04-10T12:16:36.863Z,251.37
2019-04-10T12:20:47.392Z,247.10
2019-04-10T12:24:58.505Z,248.90
2019-04-10T12:29:10.734Z,253.57
2019-04-10T12:33:21.299Z,259.33
2019-04-10T12:37:32.825Z,257.80
2019-04-10T12:41:44.143Z,253.50
2019-04-10T12:45:54.789Z,257.60
2019-04-10T12:50:08.094Z,251.17
2019-04-10T12:54:19.588Z,246.33
2019-04-10T12:58:30.892Z,263.30
2019-04-10T13:02:41.402Z,251.90
2019-04-10T13:06:52.778Z,251.67
2019-04-10T13:11:02.990Z,248.87
2019-04-10T13:15:13.499Z,248.10
2019-04-10T13:19:24.915Z,252.03
2019-04-10T13:23:35.621Z,248.43
2019-04-10T13:27:47.317Z,254.67
2019-04-10T13:31:57.706Z,253.53
2019-04-10T13:36:08.200Z,251.10
2019-04-10T13:40:19.468Z,255.33
2019-04-10T13:44:30.808Z,251.57
2019-04-10T13:48:42.847Z,246.83
2019-04-10T13:52:54.458Z,247.60
2019-04-10T13:57:05.700Z,250.67
2019-04-10T14:01:25.211Z,250.37
2019-04-10T14:05:36.811Z,252.87
2019-04-10T14:09:51.207Z,266.03
2019-04-10T14:14:00.215Z,258.90
2019-04-10T14:18:12.281Z,254.57
2019-04-10T14:22:23.918Z,244.97
2019-04-10T14:26:49.048Z,246.83
2019-04-10T14:30:58.347Z,250.70
2019-04-10T14:35:09.844Z,251.13
2019-04-10T14:39:21.426Z,249.40
2019-04-10T14:43:32.662Z,249.67
2019-04-10T14:47:43.465Z,248.37
2019-04-10T14:51:54.744Z,250.97
2019-04-10T14:56:06.960Z,261.30
2019-04-10T15:00:20.241Z,254.93
2019-04-10T15:04:30.740Z,247.53
2019-04-10T15:08:41.822Z,246.60
2019-04-10T15:12:52.051Z,248.27
2019-04-10T15:17:05.963Z,248.37
2019-04-10T15:21:15.488Z,249.07
2019-04-10T15:25:26.858Z,257.07
2019-04-10T15:29:38.538Z,255.27
2019-04-10T15:33:49.709Z,271.20
2019-04-10T15:38:01.955Z,272.27
2019-04-10T15:42:12.245Z,259.57
2019-04-10T15:46:24.777Z,254.47
2019-04-10T15:50:35.222Z,250.23
2019-04-10T15:54:45.903Z,247.73
2019-04-10T15:58:58.052Z,258.63
2019-04-10T16:03:09.197Z,253.87
2019-04-10T16:07:21.193Z,252.13
2019-04-10T16:11:43.807Z,254.27
2019-04-10T16:15:54.733Z,252.93
2019-04-10T16:20:14.114Z,245.70
2019-04-10T16:24:24.899Z,252.03
2019-04-10T16:28:36.026Z,250.93
2019-04-10T16:32:48.431Z,252.37
2019-04-10T16:36:59.917Z,251.57
2019-04-10T16:41:14.939Z,252.30
2019-04-10T16:45:28.676Z,252.80
2019-04-10T16:49:41.197Z,250.10
2019-04-10T16:53:53.744Z,246.57
2019-04-10T16:58:04.459Z,258.53
2019-04-10T17:02:15.646Z,259.37
2019-04-10T17:06:26.180Z,267.03
2019-04-10T17:10:37.067Z,253.30
2019-04-10T17:14:47.803Z,254.27
2019-04-10T17:18:59.890Z,255.07
2019-04-10T17:23:10.331Z,258.20
2019-04-10T17:27:21.642Z,265.93
2019-04-10T17:31:32.919Z,252.80
2019-04-10T17:35:45.471Z,251.77
2019-04-10T17:39:55.887Z,251.50
2019-04-10T17:44:07.740Z,244.77
2019-04-10T17:48:19.967Z,252.73
2019-04-10T17:52:33.070Z,245.85
2019-04-10T17:56:42.435Z,248.40
2019-04-10T18:00:55.661Z,249.57
2019-04-10T18:05:06.609Z,245.10
2019-04-10T18:09:17.943Z,247.80
2019-04-10T18:13:28.724Z,238.97
2019-04-10T18:17:39.295Z,241.83
2019-04-10T18:21:49.976Z,252.33
2019-04-10T18:26:00.457Z,240.53
2019-04-10T18:30:12.046Z,248.43
2019-04-10T18:34:22.427Z,247.70
2019-04-10T18:38:33.319Z,249.47
2019-04-10T18:42:45.388Z,241.07
2019-04-10T18:46:56.449Z,244.03
2019-04-10T18:51:09.394Z,244.83
2019-04-10T18:55:18.846Z,244.87
2019-04-10T18:59:34.439Z,248.33
2019-04-10T19:03:54.657Z,245.07
2019-04-10T19:07:58.763Z,244.30
2019-04-10T19:12:10.607Z,251.57
2019-04-10T19:16:21.668Z,241.33
2019-04-10T19:20:32.860Z,246.10
2019-04-10T19:24:44.166Z,237.07
2019-04-10T19:28:54.476Z,240.10
2019-04-10T19:33:05.835Z,253.63
2019-04-10T19:37:16.525Z,248.13
2019-04-10T19:41:31.985Z,237.27
2019-04-10T19:45:41.781Z,235.80
2019-04-10T19:49:52.985Z,230.83
2019-04-10T19:54:05.679Z,237.60
2019-04-10T19:58:15.854Z,241.27
2019-04-10T20:02:26.696Z,243.70
2019-04-10T20:06:37.141Z,245.77
2019-04-10T20:10:47.721Z,239.17
2019-04-10T20:14:58.115Z,243.33
2019-04-10T20:19:09.529Z,238.10
2019-04-10T20:23:20.143Z,233.60
2019-04-10T20:27:30.592Z,233.37
2019-04-10T20:31:41.626Z,236.57
2019-04-10T20:35:52.959Z,234.07
2019-04-10T20:40:03.766Z,242.37
2019-04-10T20:44:14.375Z,234.77
2019-04-10T20:48:24.939Z,231.03
2019-04-10T20:52:38.209Z,230.10
2019-04-10T20:56:48.561Z,256.43
2019-04-10T21:00:59.199Z,239.93
2019-04-10T21:05:11.614Z,232.10
2019-04-10T21:09:21.883Z,233.07
2019-04-10T21:13:34.074Z,230.03
2019-04-10T21:17:44.422Z,237.03
2019-04-10T21:21:55.803Z,234.83
2019-04-10T21:26:06.789Z,223.43
2019-04-10T21:30:37.254Z,233.40
2019-04-10T21:34:48.642Z,227.83
2019-04-10T21:38:58.997Z,229.50
2019-04-10T21:43:10.084Z,228.33
2019-04-10T21:47:21.481Z,231.83
2019-04-10T21:51:33.464Z,228.40
2019-04-10T21:55:43.968Z,225.73
2019-04-10T21:59:54.406Z,233.73
2019-04-10T22:04:06.279Z,242.83
2019-04-10T22:08:23.282Z,233.23
2019-04-10T22:12:40.437Z,229.07
2019-04-10T22:16:46.394Z,224.13
2019-04-10T22:20:57.226Z,232.27
2019-04-10T22:25:09.194Z,222.53
2019-04-10T22:29:21.548Z,230.17
2019-04-10T22:33:32.123Z,243.97
2019-04-10T22:37:42.470Z,234.30
2019-04-10T22:41:52.980Z,225.00
2019-04-10T22:46:04.621Z,228.07
2019-04-10T22:50:14.963Z,225.60
2019-04-10T22:54:26.251Z,221.90
2019-04-10T22:58:37.274Z,231.53
2019-04-10T23:02:48.545Z,227.80
2019-04-10T23:06:59.831Z,225.57
2019-04-10T23:11:10.580Z,225.60
2019-04-10T23:15:20.897Z,225.70
2019-04-10T23:19:31.188Z,220.83
2019-04-10T23:23:43.549Z,225.15
2019-04-10T23:27:56.330Z,231.67
2019-04-10T23:32:09.011Z,233.67
2019-04-10T23:36:20.232Z,227.10
2019-04-10T23:40:32.504Z,243.25
2019-04-10T23:44:43.090Z,226.23
2019-04-10T23:48:53.539Z,221.23
2019-04-10T23:53:04.485Z,233.80
2019-04-10T23:57:14.916Z,228.57
